sensor_id;sensor_type;location;lat;lon;timestamp;P1;durP1;ratioP1;P2;durP2;ratioP2
53642;SDS011;39546;45.534;12.048;2022-11-10T00:03:57;15.68;;;11.48;;
53642;SDS011;39546;45.534;12.048;2022-11-10T00:10:17;17.48;;;13.55;;
53642;SDS011;39546;45.534;12.048;2022-11-10T00:16:37;17.30;;;11.23;;
53642;SDS011;39546;45.534;12.048;2022-11-10T00:23:16;17.17;;;12.20;;
53642;SDS011;39546;45.534;12.048;2022-11-10T00:29:36;15.35;;;13.25;;
53642;SDS011;39546;45.534;12.048;2022-11-10T00:35:58;15.82;;;13.62;;
53642;SDS011;39546;45.534;12.048;2022-11-10T00:42:18;20.58;;;15.80;;
53642;SDS011;39546;45.534;12.048;2022-11-10T00:48:38;14.82;;;12.60;;
53642;SDS011;39546;45.534;12.048;2022-11-10T00:54:59;13.75;;;10.13;;
53642;SDS011;39546;45.534;12.048;2022-11-10T01:01:19;17.85;;;13.40;;
53642;SDS011;39546;45.534;12.048;2022-11-10T01:07:57;19.00;;;11.98;;
53642;SDS011;39546;45.534;12.048;2022-11-10T01:14:21;17.08;;;14.15;;
53642;SDS011;39546;45.534;12.048;2022-11-10T01:20:41;20.67;;;16.60;;
53642;SDS011;39546;45.534;12.048;2022-11-10T01:27:01;17.83;;;12.88;;
53642;SDS011;39546;45.534;12.048;2022-11-10T01:33:21;18.50;;;13.77;;
53642;SDS011;39546;45.534;12.048;2022-11-10T01:39:42;16.25;;;11.60;;
53642;SDS011;39546;45.534;12.048;2022-11-10T01:52:26;15.68;;;13.77;;
53642;SDS011;39546;45.534;12.048;2022-11-10T01:58:58;14.25;;;12.75;;
53642;SDS011;39546;45.534;12.048;2022-11-10T02:05:21;13.60;;;10.00;;
53642;SDS011;39546;45.534;12.048;2022-11-10T02:11:42;19.20;;;13.43;;
53642;SDS011;39546;45.534;12.048;2022-11-10T02:18:03;24.12;;;20.35;;
53642;SDS011;39546;45.534;12.048;2022-11-10T02:24:24;19.60;;;17.30;;
53642;SDS011;39546;45.534;12.048;2022-11-10T02:30:43;21.77;;;17.10;;
53642;SDS011;39546;45.534;12.048;2022-11-10T02:37:03;22.50;;;16.00;;
53642;SDS011;39546;45.534;12.048;2022-11-10T02:43:24;18.33;;;15.02;;
53642;SDS011;39546;45.534;12.048;2022-11-10T02:49:44;19.95;;;15.05;;
53642;SDS011;39546;45.534;12.048;2022-11-10T02:56:05;24.02;;;19.48;;
53642;SDS011;39546;45.534;12.048;2022-11-10T03:02:25;22.23;;;17.55;;
53642;SDS011;39546;45.534;12.048;2022-11-10T03:08:47;18.75;;;15.05;;
53642;SDS011;39546;45.534;12.048;2022-11-10T03:15:08;15.50;;;10.07;;
53642;SDS011;39546;45.534;12.048;2022-11-10T03:21:32;17.40;;;14.82;;
53642;SDS011;39546;45.534;12.048;2022-11-10T03:27:52;18.90;;;13.90;;
53642;SDS011;39546;45.534;12.048;2022-11-10T03:34:12;22.05;;;17.52;;
53642;SDS011;39546;45.534;12.048;2022-11-10T03:40:33;20.37;;;11.50;;
53642;SDS011;39546;45.534;12.048;2022-11-10T03:46:53;19.25;;;15.07;;
53642;SDS011;39546;45.534;12.048;2022-11-10T03:53:14;15.70;;;12.52;;
53642;SDS011;39546;45.534;12.048;2022-11-10T03:59:48;15.75;;;12.27;;
53642;SDS011;39546;45.534;12.048;2022-11-10T04:06:09;27.10;;;18.75;;
53642;SDS011;39546;45.534;12.048;2022-11-10T04:12:49;17.25;;;13.68;;
53642;SDS011;39546;45.534;12.048;2022-11-10T04:19:27;18.33;;;15.52;;
53642;SDS011;39546;45.534;12.048;2022-11-10T04:25:48;15.75;;;11.93;;
53642;SDS011;39546;45.534;12.048;2022-11-10T04:32:28;17.10;;;11.18;;
53642;SDS011;39546;45.534;12.048;2022-11-10T04:38:48;18.27;;;14.93;;
53642;SDS011;39546;45.534;12.048;2022-11-10T04:45:09;18.90;;;12.57;;
53642;SDS011;39546;45.534;12.048;2022-11-10T04:51:33;15.00;;;12.00;;
53642;SDS011;39546;45.534;12.048;2022-11-10T04:57:55;12.90;;;9.93;;
53642;SDS011;39546;45.534;12.048;2022-11-10T05:10:58;14.63;;;10.50;;
53642;SDS011;39546;45.534;12.048;2022-11-10T05:17:19;18.55;;;10.57;;
53642;SDS011;39546;45.534;12.048;2022-11-10T05:23:39;20.42;;;16.08;;
53642;SDS011;39546;45.534;12.048;2022-11-10T05:30:00;18.20;;;13.82;;
53642;SDS011;39546;45.534;12.048;2022-11-10T05:36:20;20.15;;;13.73;;
53642;SDS011;39546;45.534;12.048;2022-11-10T05:42:44;18.75;;;16.62;;
53642;SDS011;39546;45.534;12.048;2022-11-10T05:49:06;22.08;;;16.12;;
53642;SDS011;39546;45.534;12.048;2022-11-10T05:55:27;17.60;;;13.62;;
53642;SDS011;39546;45.534;12.048;2022-11-10T06:01:48;19.00;;;15.18;;
53642;SDS011;39546;45.534;12.048;2022-11-10T06:08:09;23.50;;;18.05;;
53642;SDS011;39546;45.534;12.048;2022-11-10T06:14:29;24.20;;;18.25;;
53642;SDS011;39546;45.534;12.048;2022-11-10T06:20:50;27.67;;;21.05;;
53642;SDS011;39546;45.534;12.048;2022-11-10T06:33:40;19.00;;;11.75;;
53642;SDS011;39546;45.534;12.048;2022-11-10T06:40:01;21.75;;;14.77;;
53642;SDS011;39546;45.534;12.048;2022-11-10T06:46:22;16.67;;;12.25;;
53642;SDS011;39546;45.534;12.048;2022-11-10T06:52:42;20.58;;;14.63;;
53642;SDS011;39546;45.534;12.048;2022-11-10T06:59:03;19.42;;;16.62;;
53642;SDS011;39546;45.534;12.048;2022-11-10T07:05:23;18.02;;;12.37;;
53642;SDS011;39546;45.534;12.048;2022-11-10T07:11:44;17.23;;;13.32;;
53642;SDS011;39546;45.534;12.048;2022-11-10T07:18:04;15.93;;;11.85;;
53642;SDS011;39546;45.534;12.048;2022-11-10T07:24:24;16.85;;;14.90;;
53642;SDS011;39546;45.534;12.048;2022-11-10T07:30:45;18.90;;;15.35;;
53642;SDS011;39546;45.534;12.048;2022-11-10T07:37:05;16.55;;;13.25;;
53642;SDS011;39546;45.534;12.048;2022-11-10T07:43:25;17.12;;;13.30;;
53642;SDS011;39546;45.534;12.048;2022-11-10T07:49:45;20.83;;;13.35;;
53642;SDS011;39546;45.534;12.048;2022-11-10T07:56:16;17.60;;;13.32;;
53642;SDS011;39546;45.534;12.048;2022-11-10T08:02:36;15.82;;;13.95;;
53642;SDS011;39546;45.534;12.048;2022-11-10T08:08:56;15.50;;;11.75;;
53642;SDS011;39546;45.534;12.048;2022-11-10T08:15:16;17.00;;;12.40;;
53642;SDS011;39546;45.534;12.048;2022-11-10T08:21:36;16.62;;;11.10;;
53642;SDS011;39546;45.534;12.048;2022-11-10T08:28:01;17.40;;;13.60;;
53642;SDS011;39546;45.534;12.048;2022-11-10T08:34:31;14.43;;;11.40;;
53642;SDS011;39546;45.534;12.048;2022-11-10T08:40:54;11.40;;;9.15;;
53642;SDS011;39546;45.534;12.048;2022-11-10T08:47:16;12.82;;;8.95;;
53642;SDS011;39546;45.534;12.048;2022-11-10T08:53:36;12.02;;;10.25;;
53642;SDS011;39546;45.534;12.048;2022-11-10T08:59:57;15.00;;;11.50;;
53642;SDS011;39546;45.534;12.048;2022-11-10T09:06:18;16.65;;;11.82;;
53642;SDS011;39546;45.534;12.048;2022-11-10T09:12:38;15.60;;;10.75;;
53642;SDS011;39546;45.534;12.048;2022-11-10T09:18:59;10.93;;;9.05;;
53642;SDS011;39546;45.534;12.048;2022-11-10T09:25:38;15.50;;;10.90;;
53642;SDS011;39546;45.534;12.048;2022-11-10T09:31:59;12.98;;;9.32;;
53642;SDS011;39546;45.534;12.048;2022-11-10T09:38:20;16.00;;;9.95;;
53642;SDS011;39546;45.534;12.048;2022-11-10T09:44:43;10.52;;;8.50;;
53642;SDS011;39546;45.534;12.048;2022-11-10T09:51:25;12.27;;;9.02;;
53642;SDS011;39546;45.534;12.048;2022-11-10T09:57:57;17.05;;;10.27;;
53642;SDS011;39546;45.534;12.048;2022-11-10T10:24:35;9.70;;;7.07;;
53642;SDS011;39546;45.534;12.048;2022-11-10T10:44:10;10.85;;;8.07;;
53642;SDS011;39546;45.534;12.048;2022-11-10T10:50:36;11.88;;;9.35;;
53642;SDS011;39546;45.534;12.048;2022-11-10T11:03:44;19.95;;;9.80;;
53642;SDS011;39546;45.534;12.048;2022-11-10T11:10:25;15.05;;;11.50;;
53642;SDS011;39546;45.534;12.048;2022-11-10T11:16:49;14.55;;;10.18;;
53642;SDS011;39546;45.534;12.048;2022-11-10T11:30:13;7.95;;;5.68;;
53642;SDS011;39546;45.534;12.048;2022-11-10T11:36:44;12.02;;;10.15;;
53642;SDS011;39546;45.534;12.048;2022-11-10T11:50:14;11.75;;;9.25;;
53642;SDS011;39546;45.534;12.048;2022-11-10T11:56:43;12.63;;;8.68;;
53642;SDS011;39546;45.534;12.048;2022-11-10T12:03:29;9.07;;;7.20;;
53642;SDS011;39546;45.534;12.048;2022-11-10T12:30:43;10.77;;;7.50;;
53642;SDS011;39546;45.534;12.048;2022-11-10T12:37:05;7.35;;;5.82;;
53642;SDS011;39546;45.534;12.048;2022-11-10T12:43:52;6.80;;;5.03;;
53642;SDS011;39546;45.534;12.048;2022-11-10T12:57:17;8.73;;;5.20;;
53642;SDS011;39546;45.534;12.048;2022-11-10T13:03:55;7.05;;;5.18;;
53642;SDS011;39546;45.534;12.048;2022-11-10T13:36:07;4.60;;;3.15;;
53642;SDS011;39546;45.534;12.048;2022-11-10T13:42:27;6.93;;;3.62;;
53642;SDS011;39546;45.534;12.048;2022-11-10T13:48:57;5.62;;;4.05;;
53642;SDS011;39546;45.534;12.048;2022-11-10T13:55:45;3.92;;;3.03;;
53642;SDS011;39546;45.534;12.048;2022-11-10T14:23:18;3.33;;;2.47;;
53642;SDS011;39546;45.534;12.048;2022-11-10T14:29:46;3.30;;;2.20;;
53642;SDS011;39546;45.534;12.048;2022-11-10T14:36:07;2.30;;;1.83;;
53642;SDS011;39546;45.534;12.048;2022-11-10T14:42:32;2.80;;;1.83;;
53642;SDS011;39546;45.534;12.048;2022-11-10T14:49:23;2.47;;;1.55;;
53642;SDS011;39546;45.534;12.048;2022-11-10T14:55:45;2.12;;;1.67;;
53642;SDS011;39546;45.534;12.048;2022-11-10T15:02:25;1.70;;;1.43;;
53642;SDS011;39546;45.534;12.048;2022-11-10T15:08:46;3.05;;;2.20;;
53642;SDS011;39546;45.534;12.048;2022-11-10T15:15:13;2.45;;;2.05;;
53642;SDS011;39546;45.534;12.048;2022-11-10T15:21:38;4.43;;;2.17;;
53642;SDS011;39546;45.534;12.048;2022-11-10T15:28:01;2.50;;;1.70;;
53642;SDS011;39546;45.534;12.048;2022-11-10T15:41:42;2.47;;;1.75;;
53642;SDS011;39546;45.534;12.048;2022-11-10T15:47:43;2.47;;;1.52;;
53642;SDS011;39546;45.534;12.048;2022-11-10T15:54:07;1.52;;;1.02;;
53642;SDS011;39546;45.534;12.048;2022-11-10T16:00:28;1.60;;;1.35;;
53642;SDS011;39546;45.534;12.048;2022-11-10T16:06:49;2.20;;;1.92;;
53642;SDS011;39546;45.534;12.048;2022-11-10T16:13:10;3.85;;;2.28;;
53642;SDS011;39546;45.534;12.048;2022-11-10T16:19:33;8.50;;;5.43;;
53642;SDS011;39546;45.534;12.048;2022-11-10T16:25:55;13.13;;;5.97;;
53642;SDS011;39546;45.534;12.048;2022-11-10T16:32:16;11.68;;;6.82;;
53642;SDS011;39546;45.534;12.048;2022-11-10T16:38:36;7.60;;;5.57;;
53642;SDS011;39546;45.534;12.048;2022-11-10T16:44:57;8.93;;;6.00;;
53642;SDS011;39546;45.534;12.048;2022-11-10T16:51:17;9.57;;;5.47;;
53642;SDS011;39546;45.534;12.048;2022-11-10T16:57:59;9.93;;;6.82;;
53642;SDS011;39546;45.534;12.048;2022-11-10T17:10:59;9.05;;;5.95;;
53642;SDS011;39546;45.534;12.048;2022-11-10T17:17:19;8.45;;;5.57;;
53642;SDS011;39546;45.534;12.048;2022-11-10T17:23:40;8.65;;;5.18;;
53642;SDS011;39546;45.534;12.048;2022-11-10T17:30:00;6.62;;;4.35;;
53642;SDS011;39546;45.534;12.048;2022-11-10T17:36:20;6.37;;;5.05;;
53642;SDS011;39546;45.534;12.048;2022-11-10T17:42:42;6.62;;;5.32;;
53642;SDS011;39546;45.534;12.048;2022-11-10T17:49:07;7.55;;;5.78;;
53642;SDS011;39546;45.534;12.048;2022-11-10T17:55:29;5.72;;;4.70;;
53642;SDS011;39546;45.534;12.048;2022-11-10T18:01:49;8.32;;;7.32;;
53642;SDS011;39546;45.534;12.048;2022-11-10T18:08:10;11.02;;;9.43;;
53642;SDS011;39546;45.534;12.048;2022-11-10T18:14:30;12.02;;;10.57;;
53642;SDS011;39546;45.534;12.048;2022-11-10T18:20:52;10.68;;;9.13;;
53642;SDS011;39546;45.534;12.048;2022-11-10T18:27:14;9.95;;;8.02;;
53642;SDS011;39546;45.534;12.048;2022-11-10T18:33:35;9.73;;;8.75;;
53642;SDS011;39546;45.534;12.048;2022-11-10T18:39:56;13.93;;;10.95;;
53642;SDS011;39546;45.534;12.048;2022-11-10T18:46:16;9.60;;;8.38;;
53642;SDS011;39546;45.534;12.048;2022-11-10T18:52:36;11.12;;;9.18;;
53642;SDS011;39546;45.534;12.048;2022-11-10T18:58:56;10.25;;;7.80;;
53642;SDS011;39546;45.534;12.048;2022-11-10T19:05:16;9.10;;;8.02;;
53642;SDS011;39546;45.534;12.048;2022-11-10T19:11:37;11.63;;;9.88;;
53642;SDS011;39546;45.534;12.048;2022-11-10T19:18:07;11.23;;;9.68;;
53642;SDS011;39546;45.534;12.048;2022-11-10T19:24:27;8.02;;;6.47;;
53642;SDS011;39546;45.534;12.048;2022-11-10T19:30:58;8.15;;;7.05;;
53642;SDS011;39546;45.534;12.048;2022-11-10T19:37:19;9.38;;;7.60;;
53642;SDS011;39546;45.534;12.048;2022-11-10T19:43:44;8.30;;;6.65;;
53642;SDS011;39546;45.534;12.048;2022-11-10T19:50:36;9.10;;;7.05;;
53642;SDS011;39546;45.534;12.048;2022-11-10T19:56:57;10.98;;;9.65;;
53642;SDS011;39546;45.534;12.048;2022-11-10T20:03:18;9.95;;;7.87;;
53642;SDS011;39546;45.534;12.048;2022-11-10T20:09:39;10.50;;;7.18;;
53642;SDS011;39546;45.534;12.048;2022-11-10T20:16:11;13.55;;;9.82;;
53642;SDS011;39546;45.534;12.048;2022-11-10T20:23:09;11.50;;;6.75;;
53642;SDS011;39546;45.534;12.048;2022-11-10T20:29:30;9.38;;;6.25;;
53642;SDS011;39546;45.534;12.048;2022-11-10T20:35:51;8.52;;;6.72;;
53642;SDS011;39546;45.534;12.048;2022-11-10T20:42:11;5.93;;;4.93;;
53642;SDS011;39546;45.534;12.048;2022-11-10T20:48:33;11.45;;;7.37;;
53642;SDS011;39546;45.534;12.048;2022-11-10T20:54:54;7.35;;;5.53;;
53642;SDS011;39546;45.534;12.048;2022-11-10T21:01:14;7.50;;;5.47;;
53642;SDS011;39546;45.534;12.048;2022-11-10T21:07:34;8.50;;;5.75;;
53642;SDS011;39546;45.534;12.048;2022-11-10T21:13:56;9.43;;;6.45;;
53642;SDS011;39546;45.534;12.048;2022-11-10T21:20:25;8.32;;;6.12;;
53642;SDS011;39546;45.534;12.048;2022-11-10T21:26:46;7.47;;;6.10;;
53642;SDS011;39546;45.534;12.048;2022-11-10T21:33:07;8.45;;;7.10;;
53642;SDS011;39546;45.534;12.048;2022-11-10T21:39:28;8.40;;;6.72;;
53642;SDS011;39546;45.534;12.048;2022-11-10T21:45:54;7.10;;;6.15;;
53642;SDS011;39546;45.534;12.048;2022-11-10T21:52:15;9.45;;;7.53;;
53642;SDS011;39546;45.534;12.048;2022-11-10T21:58:35;7.90;;;6.45;;
53642;SDS011;39546;45.534;12.048;2022-11-10T22:04:56;7.03;;;5.20;;
53642;SDS011;39546;45.534;12.048;2022-11-10T22:11:18;8.40;;;6.35;;
53642;SDS011;39546;45.534;12.048;2022-11-10T22:17:58;9.32;;;6.90;;
53642;SDS011;39546;45.534;12.048;2022-11-10T22:24:38;11.05;;;8.65;;
53642;SDS011;39546;45.534;12.048;2022-11-10T22:31:00;12.00;;;8.93;;
53642;SDS011;39546;45.534;12.048;2022-11-10T22:37:25;10.15;;;7.00;;
53642;SDS011;39546;45.534;12.048;2022-11-10T22:43:51;7.35;;;6.35;;
53642;SDS011;39546;45.534;12.048;2022-11-10T22:50:25;9.50;;;7.28;;
53642;SDS011;39546;45.534;12.048;2022-11-10T22:56:46;8.18;;;6.60;;
53642;SDS011;39546;45.534;12.048;2022-11-10T23:03:07;10.77;;;7.18;;
53642;SDS011;39546;45.534;12.048;2022-11-10T23:09:34;8.93;;;7.30;;
53642;SDS011;39546;45.534;12.048;2022-11-10T23:15:59;8.50;;;7.37;;
53642;SDS011;39546;45.534;12.048;2022-11-10T23:22:20;8.38;;;6.85;;
53642;SDS011;39546;45.534;12.048;2022-11-10T23:28:40;9.15;;;7.50;;
53642;SDS011;39546;45.534;12.048;2022-11-10T23:35:01;7.82;;;6.28;;
53642;SDS011;39546;45.534;12.048;2022-11-10T23:41:31;9.13;;;6.25;;
53642;SDS011;39546;45.534;12.048;2022-11-10T23:48:07;9.23;;;7.12;;
53642;SDS011;39546;45.534;12.048;2022-11-10T23:54:27;7.05;;;5.75;;
